createdAt,value
2023-01-29T00:00:27.550Z,1004.45
2023-01-29T00:01:28.255Z,1004.45
2023-01-29T00:02:27.488Z,1004.47
2023-01-29T00:03:28.024Z,1004.51
2023-01-29T00:04:27.524Z,1004.48
2023-01-29T00:05:28.598Z,1004.54
2023-01-29T00:06:27.514Z,1004.48
2023-01-29T00:07:27.523Z,1004.48
2023-01-29T00:08:27.531Z,1004.49
2023-01-29T00:09:27.479Z,1004.49
2023-01-29T00:10:27.440Z,1004.47
2023-01-29T00:11:27.440Z,1004.46
2023-01-29T00:12:27.448Z,1004.48
2023-01-29T00:13:27.540Z,1004.41
2023-01-29T00:14:27.567Z,1004.42
2023-01-29T00:15:27.468Z,1004.39
2023-01-29T00:16:27.485Z,1004.37
2023-01-29T00:17:27.487Z,1004.37
2023-01-29T00:18:27.485Z,1004.29
2023-01-29T00:19:27.499Z,1004.22
2023-01-29T00:20:27.495Z,1004.28
2023-01-29T00:21:27.529Z,1004.30
2023-01-29T00:22:27.525Z,1004.30
2023-01-29T00:23:27.153Z,1004.36
2023-01-29T00:24:27.158Z,1004.34
2023-01-29T00:25:27.215Z,1004.33
2023-01-29T00:26:27.393Z,1004.33
2023-01-29T00:27:27.343Z,1004.33
2023-01-29T00:28:27.036Z,1004.32
2023-01-29T00:29:27.457Z,1004.26
2023-01-29T00:30:27.473Z,1004.28
2023-01-29T00:31:27.701Z,1004.26
2023-01-29T00:32:27.480Z,1004.24
2023-01-29T00:33:27.490Z,1004.18
2023-01-29T00:34:27.486Z,1004.19
2023-01-29T00:35:27.743Z,1004.14
2023-01-29T00:36:27.500Z,1004.20
2023-01-29T00:37:27.508Z,1004.18
2023-01-29T00:38:27.616Z,1004.14
2023-01-29T00:39:33.764Z,1004.10
2023-01-29T00:40:28.042Z,1004.12
2023-01-29T00:41:27.421Z,1004.04
2023-01-29T00:42:27.442Z,1004.06
2023-01-29T00:43:27.439Z,1004.08
2023-01-29T00:44:27.443Z,1004.08
2023-01-29T00:45:27.260Z,1004.03
2023-01-29T00:46:27.496Z,1003.99
2023-01-29T00:47:27.460Z,1004.00
2023-01-29T00:48:27.471Z,1004.04
2023-01-29T00:49:27.477Z,1003.99
2023-01-29T00:50:27.181Z,1003.97
2023-01-29T00:51:27.471Z,1004.02
2023-01-29T00:52:26.747Z,1004.02
2023-01-29T00:53:26.789Z,1004.05
2023-01-29T00:54:26.794Z,1004.04
2023-01-29T00:55:26.899Z,1004.05
2023-01-29T00:56:26.908Z,1004.10
2023-01-29T00:57:27.045Z,1004.03
2023-01-29T00:58:27.098Z,1004.03
2023-01-29T00:59:27.044Z,1004.05
2023-01-29T01:00:27.368Z,1004.06
2023-01-29T01:01:27.243Z,1004.09
2023-01-29T01:02:26.856Z,1004.11
2023-01-29T01:03:26.682Z,1004.17
2023-01-29T01:04:26.817Z,1004.18
2023-01-29T01:05:27.413Z,1004.16
2023-01-29T01:06:26.786Z,1004.16
2023-01-29T01:07:27.463Z,1004.15
2023-01-29T01:08:26.688Z,1004.19
2023-01-29T01:09:27.274Z,1004.20
2023-01-29T01:10:26.486Z,1004.23
2023-01-29T01:11:26.493Z,1004.23
2023-01-29T01:12:26.594Z,1004.25
2023-01-29T01:13:26.532Z,1004.29
2023-01-29T01:14:30.691Z,1004.30
2023-01-29T01:15:26.436Z,1004.30
2023-01-29T01:16:26.504Z,1004.27
2023-01-29T01:17:26.435Z,1004.29
2023-01-29T01:18:27.121Z,1004.29
2023-01-29T01:19:27.463Z,1004.28
2023-01-29T01:20:26.552Z,1004.31
2023-01-29T01:21:26.357Z,1004.27
2023-01-29T01:22:26.500Z,1004.28
2023-01-29T01:23:26.472Z,1004.27
2023-01-29T01:24:26.607Z,1004.31
2023-01-29T01:25:26.600Z,1004.33
2023-01-29T01:26:26.333Z,1004.34
2023-01-29T01:27:26.578Z,1004.39
2023-01-29T01:28:26.503Z,1004.39
2023-01-29T01:29:26.595Z,1004.38
2023-01-29T01:30:26.572Z,1004.29
2023-01-29T01:31:26.363Z,1004.23
2023-01-29T01:32:26.370Z,1004.18
2023-01-29T01:33:26.490Z,1004.12
2023-01-29T01:34:26.429Z,1004.08
2023-01-29T01:35:26.389Z,1004.11
2023-01-29T01:36:30.614Z,1004.07
2023-01-29T01:37:26.531Z,1004.01
2023-01-29T01:38:26.832Z,1003.97
2023-01-29T01:39:26.551Z,1003.97
2023-01-29T01:40:26.582Z,1003.91
2023-01-29T01:41:26.188Z,1003.93
2023-01-29T01:42:26.660Z,1003.86
2023-01-29T01:43:27.718Z,1003.93
2023-01-29T01:44:26.508Z,1003.92
2023-01-29T01:45:26.310Z,1003.92
2023-01-29T01:46:26.137Z,1003.92
2023-01-29T01:47:26.028Z,1003.87
2023-01-29T01:48:26.420Z,1003.83
2023-01-29T01:49:26.507Z,1003.85
2023-01-29T01:50:26.606Z,1003.84
2023-01-29T01:51:26.548Z,1003.81
2023-01-29T01:52:26.446Z,1003.85
2023-01-29T01:53:26.125Z,1003.77
2023-01-29T01:54:26.109Z,1003.77
2023-01-29T01:55:26.289Z,1003.75
2023-01-29T01:56:26.155Z,1003.71
2023-01-29T01:57:26.085Z,1003.70
2023-01-29T01:58:26.275Z,1003.74
2023-01-29T01:59:25.925Z,1003.70
2023-01-29T02:00:26.497Z,1003.74
2023-01-29T02:01:26.698Z,1003.76
2023-01-29T02:02:26.539Z,1003.77
2023-01-29T02:03:26.542Z,1003.73
2023-01-29T02:04:26.512Z,1003.77
2023-01-29T02:05:26.424Z,1003.81
2023-01-29T02:06:26.435Z,1003.76
2023-01-29T02:07:26.449Z,1003.73
2023-01-29T02:08:26.449Z,1003.70
2023-01-29T02:09:26.461Z,1003.74
2023-01-29T02:10:26.503Z,1003.69
2023-01-29T02:11:26.464Z,1003.62
2023-01-29T02:12:26.501Z,1003.61
2023-01-29T02:13:25.693Z,1003.64
2023-01-29T02:14:26.076Z,1003.66
2023-01-29T02:15:26.512Z,1003.72
2023-01-29T02:16:25.781Z,1003.76
2023-01-29T02:17:26.413Z,1003.78
2023-01-29T02:18:26.539Z,1003.77
2023-01-29T02:19:26.471Z,1003.75
2023-01-29T02:20:26.453Z,1003.72
2023-01-29T02:21:25.599Z,1003.76
2023-01-29T02:22:25.686Z,1003.78
2023-01-29T02:23:25.730Z,1003.80
2023-01-29T02:24:25.784Z,1003.76
2023-01-29T02:25:25.875Z,1003.74
2023-01-29T02:26:25.844Z,1003.73
2023-01-29T02:27:25.960Z,1003.75
2023-01-29T02:28:26.467Z,1003.79
2023-01-29T02:29:26.129Z,1003.80
2023-01-29T02:30:26.068Z,1003.80
2023-01-29T02:31:26.127Z,1003.82
2023-01-29T02:32:26.193Z,1003.79
2023-01-29T02:33:26.199Z,1003.79
2023-01-29T02:34:25.617Z,1003.84
2023-01-29T02:35:26.193Z,1003.78
2023-01-29T02:36:25.786Z,1003.83
2023-01-29T02:37:25.438Z,1003.83
2023-01-29T02:38:26.164Z,1003.86
2023-01-29T02:39:26.321Z,1003.91
2023-01-29T02:40:26.355Z,1003.86
2023-01-29T02:41:25.524Z,1003.85
2023-01-29T02:42:26.445Z,1003.94
2023-01-29T02:43:26.275Z,1003.92
2023-01-29T02:44:26.104Z,1003.95
2023-01-29T02:45:26.398Z,1003.89
2023-01-29T02:46:25.279Z,1003.87
2023-01-29T02:47:26.053Z,1003.83
2023-01-29T02:48:25.804Z,1003.78
2023-01-29T02:49:26.151Z,1003.80
2023-01-29T02:50:26.581Z,1003.76
2023-01-29T02:51:25.560Z,1003.79
2023-01-29T02:52:25.217Z,1003.66
2023-01-29T02:53:25.295Z,1003.64
2023-01-29T02:54:25.441Z,1003.63
2023-01-29T02:55:25.171Z,1003.64
2023-01-29T02:56:25.434Z,1003.60
2023-01-29T02:57:25.378Z,1003.65
2023-01-29T02:58:25.132Z,1003.68
2023-01-29T02:59:25.282Z,1003.70
2023-01-29T03:00:25.777Z,1003.73
2023-01-29T03:01:25.129Z,1003.86
2023-01-29T03:02:25.091Z,1003.82
2023-01-29T03:03:25.804Z,1003.89
2023-01-29T03:04:25.358Z,1003.91
2023-01-29T03:05:25.643Z,1003.87
2023-01-29T03:06:25.777Z,1003.82
2023-01-29T03:07:26.261Z,1003.85
2023-01-29T03:08:25.829Z,1003.87
2023-01-29T03:09:25.861Z,1003.95
2023-01-29T03:10:24.990Z,1003.93
2023-01-29T03:11:25.069Z,1003.93
2023-01-29T03:12:25.131Z,1003.90
2023-01-29T03:13:26.031Z,1003.89
2023-01-29T03:14:25.908Z,1003.93
2023-01-29T03:15:25.227Z,1003.98
2023-01-29T03:16:25.911Z,1003.99
2023-01-29T03:17:25.737Z,1004.02
2023-01-29T03:18:25.658Z,1003.96
2023-01-29T03:19:25.821Z,1003.97
2023-01-29T03:20:24.892Z,1003.93
2023-01-29T03:21:24.868Z,1003.93
2023-01-29T03:22:24.981Z,1003.97
2023-01-29T03:23:25.013Z,1003.96
2023-01-29T03:24:25.110Z,1003.98
2023-01-29T03:25:25.121Z,1004.00
2023-01-29T03:26:25.029Z,1003.98
2023-01-29T03:27:25.217Z,1003.96
2023-01-29T03:28:25.222Z,1004.02
2023-01-29T03:29:25.326Z,1004.01
2023-01-29T03:30:25.335Z,1003.96
2023-01-29T03:31:25.503Z,1003.97
2023-01-29T03:32:25.445Z,1003.89
2023-01-29T03:33:24.770Z,1003.89
2023-01-29T03:34:25.060Z,1003.87
2023-01-29T03:35:25.596Z,1003.88
2023-01-29T03:36:25.443Z,1003.83
2023-01-29T03:37:24.974Z,1003.78
2023-01-29T03:38:25.512Z,1003.73
2023-01-29T03:39:25.426Z,1003.66
2023-01-29T03:40:25.315Z,1003.64
2023-01-29T03:41:25.483Z,1003.59
2023-01-29T03:42:24.592Z,1003.61
2023-01-29T03:43:25.293Z,1003.64
2023-01-29T03:44:25.450Z,1003.65
2023-01-29T03:45:25.131Z,1003.76
2023-01-29T03:46:25.252Z,1003.73
2023-01-29T03:47:26.022Z,1003.65
2023-01-29T03:48:24.903Z,1003.60
2023-01-29T03:49:25.502Z,1003.59
2023-01-29T03:50:24.539Z,1003.60
2023-01-29T03:51:24.582Z,1003.66
2023-01-29T03:52:24.451Z,1003.68
2023-01-29T03:53:24.680Z,1003.69
2023-01-29T03:54:24.576Z,1003.68
2023-01-29T03:55:24.877Z,1003.71
2023-01-29T03:56:24.570Z,1003.63
2023-01-29T03:57:24.891Z,1003.69
2023-01-29T03:58:24.911Z,1003.66
2023-01-29T03:59:25.009Z,1003.73
2023-01-29T04:00:25.032Z,1003.73
2023-01-29T04:01:24.354Z,1003.65
2023-01-29T04:02:24.321Z,1003.68
2023-01-29T04:03:25.157Z,1003.67
2023-01-29T04:04:24.355Z,1003.70
2023-01-29T04:05:24.289Z,1003.69
2023-01-29T04:06:24.258Z,1003.62
2023-01-29T04:07:24.245Z,1003.68
2023-01-29T04:08:24.248Z,1003.67
2023-01-29T04:09:24.207Z,1003.62
2023-01-29T04:10:24.226Z,1003.62
2023-01-29T04:11:24.188Z,1003.68
2023-01-29T04:12:24.266Z,1003.61
2023-01-29T04:13:24.167Z,1003.66
2023-01-29T04:14:24.166Z,1003.61
2023-01-29T04:15:24.257Z,1003.61
2023-01-29T04:16:24.303Z,1003.57
2023-01-29T04:17:24.147Z,1003.50
2023-01-29T04:18:24.122Z,1003.54
2023-01-29T04:19:24.116Z,1003.51
2023-01-29T04:20:24.101Z,1003.53
2023-01-29T04:21:24.070Z,1003.63
2023-01-29T04:22:24.057Z,1003.57
2023-01-29T04:23:24.235Z,1003.52
2023-01-29T04:24:24.111Z,1003.56
2023-01-29T04:25:24.036Z,1003.50
2023-01-29T04:26:24.257Z,1003.48
2023-01-29T04:27:24.246Z,1003.48
2023-01-29T04:28:23.967Z,1003.48
2023-01-29T04:29:23.967Z,1003.39
2023-01-29T04:30:24.027Z,1003.37
2023-01-29T04:31:24.054Z,1003.37
2023-01-29T04:32:23.931Z,1003.40
2023-01-29T04:33:23.946Z,1003.32
2023-01-29T04:34:24.245Z,1003.34
2023-01-29T04:35:23.935Z,1003.28
2023-01-29T04:36:24.261Z,1003.22
2023-01-29T04:37:24.252Z,1003.22
2023-01-29T04:38:23.842Z,1003.26
2023-01-29T04:39:23.850Z,1003.18
2023-01-29T04:40:23.865Z,1003.09
2023-01-29T04:41:24.269Z,1003.10
2023-01-29T04:42:23.799Z,1003.10
2023-01-29T04:43:23.771Z,1003.08
2023-01-29T04:44:24.253Z,1003.11
2023-01-29T04:45:24.250Z,1003.10
2023-01-29T04:46:24.252Z,1003.13
2023-01-29T04:47:23.750Z,1003.06
2023-01-29T04:48:23.832Z,1003.05
2023-01-29T04:49:23.898Z,1002.96
2023-01-29T04:50:23.867Z,1002.94
2023-01-29T04:51:23.941Z,1002.96
2023-01-29T04:52:23.986Z,1002.93
2023-01-29T04:53:24.029Z,1002.90
2023-01-29T04:54:23.655Z,1002.83
2023-01-29T04:55:23.724Z,1002.80
2023-01-29T04:56:23.793Z,1002.80
2023-01-29T04:57:23.843Z,1002.76
2023-01-29T04:58:23.602Z,1002.73
2023-01-29T04:59:23.660Z,1002.70
2023-01-29T05:00:23.697Z,1002.65
2023-01-29T05:01:23.778Z,1002.67
2023-01-29T05:02:23.528Z,1002.69
2023-01-29T05:03:23.533Z,1002.66
2023-01-29T05:04:23.677Z,1002.68
2023-01-29T05:05:23.707Z,1002.59
2023-01-29T05:06:23.481Z,1002.62
2023-01-29T05:07:23.818Z,1002.58
2023-01-29T05:08:23.878Z,1002.54
2023-01-29T05:09:23.453Z,1002.57
2023-01-29T05:10:23.985Z,1002.63
2023-01-29T05:11:24.064Z,1002.64
2023-01-29T05:12:24.123Z,1002.61
2023-01-29T05:13:24.186Z,1002.71
2023-01-29T05:14:24.238Z,1002.67
2023-01-29T05:15:23.437Z,1002.66
2023-01-29T05:16:23.404Z,1002.70
2023-01-29T05:17:23.429Z,1002.69
2023-01-29T05:18:23.371Z,1002.66
2023-01-29T05:19:23.582Z,1002.64
2023-01-29T05:20:23.606Z,1002.70
2023-01-29T05:21:23.656Z,1002.62
2023-01-29T05:22:23.297Z,1002.65
2023-01-29T05:23:23.273Z,1002.65
2023-01-29T05:24:23.346Z,1002.64
2023-01-29T05:25:23.292Z,1002.64
2023-01-29T05:26:23.223Z,1002.62
2023-01-29T05:27:23.231Z,1002.65
2023-01-29T05:28:23.200Z,1002.66
2023-01-29T05:29:24.069Z,1002.70
2023-01-29T05:30:23.218Z,1002.70
2023-01-29T05:31:23.249Z,1002.66
2023-01-29T05:32:24.057Z,1002.69
2023-01-29T05:33:23.157Z,1002.73
2023-01-29T05:34:24.275Z,1002.73
2023-01-29T05:35:24.006Z,1002.74
2023-01-29T05:36:24.242Z,1002.71
2023-01-29T05:37:23.189Z,1002.70
2023-01-29T05:38:23.089Z,1002.75
2023-01-29T05:39:23.064Z,1002.80
2023-01-29T05:40:23.786Z,1002.79
2023-01-29T05:41:23.039Z,1002.85
2023-01-29T05:42:23.842Z,1002.78
2023-01-29T05:43:23.778Z,1002.82
2023-01-29T05:44:23.908Z,1002.76
2023-01-29T05:45:23.019Z,1002.81
2023-01-29T05:46:23.102Z,1002.82
2023-01-29T05:47:22.958Z,1002.83
2023-01-29T05:48:22.969Z,1002.87
2023-01-29T05:49:22.946Z,1002.92
2023-01-29T05:50:23.363Z,1002.98
2023-01-29T05:51:23.357Z,1003.02
2023-01-29T05:52:22.926Z,1003.05
2023-01-29T05:53:22.897Z,1002.99
2023-01-29T05:54:23.527Z,1003.00
2023-01-29T05:55:22.894Z,1003.03
2023-01-29T05:56:22.857Z,1002.99
2023-01-29T05:57:22.840Z,1002.96
2023-01-29T05:58:22.825Z,1003.04
2023-01-29T05:59:23.744Z,1002.93
2023-01-29T06:00:22.844Z,1002.99
2023-01-29T06:01:22.796Z,1002.92
2023-01-29T06:02:23.720Z,1002.93
2023-01-29T06:03:22.774Z,1002.85
2023-01-29T06:04:23.560Z,1002.83
2023-01-29T06:05:23.895Z,1002.87
2023-01-29T06:06:23.594Z,1002.81
2023-01-29T06:07:22.804Z,1002.85
2023-01-29T06:08:22.696Z,1002.90
2023-01-29T06:09:22.686Z,1002.98
2023-01-29T06:10:23.478Z,1003.06
2023-01-29T06:11:23.630Z,1003.17
2023-01-29T06:12:24.141Z,1003.18
2023-01-29T06:13:23.793Z,1003.21
2023-01-29T06:14:22.624Z,1003.27
2023-01-29T06:15:22.624Z,1003.24
2023-01-29T06:16:22.749Z,1003.27
2023-01-29T06:17:22.772Z,1003.22
2023-01-29T06:18:22.839Z,1003.20
2023-01-29T06:19:22.881Z,1003.15
2023-01-29T06:20:22.574Z,1003.15
2023-01-29T06:21:23.052Z,1003.19
2023-01-29T06:22:23.144Z,1003.24
2023-01-29T06:23:23.140Z,1003.27
2023-01-29T06:24:22.524Z,1003.27
2023-01-29T06:25:23.219Z,1003.18
2023-01-29T06:26:23.201Z,1003.02
2023-01-29T06:27:23.227Z,1003.12
2023-01-29T06:28:23.271Z,1003.12
2023-01-29T06:29:23.188Z,1003.09
2023-01-29T06:30:22.439Z,1003.02
2023-01-29T06:31:37.219Z,1003.05
2023-01-29T06:32:23.703Z,1003.00
2023-01-29T06:33:22.406Z,1003.07
2023-01-29T06:34:23.208Z,1003.11
2023-01-29T06:35:23.109Z,1003.10
2023-01-29T06:36:23.947Z,1003.09
2023-01-29T06:37:22.541Z,1003.15
2023-01-29T06:38:23.027Z,1003.11
2023-01-29T06:39:22.459Z,1003.11
2023-01-29T06:40:23.144Z,1003.14
2023-01-29T06:41:23.056Z,1003.15
2023-01-29T06:42:23.208Z,1003.22
2023-01-29T06:43:22.307Z,1003.19
2023-01-29T06:44:22.237Z,1003.24
2023-01-29T06:45:22.316Z,1003.24
2023-01-29T06:46:22.486Z,1003.19
2023-01-29T06:47:22.177Z,1003.25
2023-01-29T06:48:22.300Z,1003.26
2023-01-29T06:49:22.121Z,1003.14
2023-01-29T06:50:22.666Z,1003.20
2023-01-29T06:51:22.831Z,1003.27
2023-01-29T06:52:22.775Z,1003.19
2023-01-29T06:53:22.065Z,1003.28
2023-01-29T06:54:22.839Z,1003.28
2023-01-29T06:55:22.039Z,1003.27
2023-01-29T06:56:22.057Z,1003.15
2023-01-29T06:57:22.025Z,1003.17
2023-01-29T06:58:22.023Z,1003.14
2023-01-29T06:59:22.006Z,1003.12
2023-01-29T07:00:21.990Z,1003.14
2023-01-29T07:01:35.212Z,1003.15
2023-01-29T07:02:23.375Z,1003.08
2023-01-29T07:03:22.779Z,1003.13
2023-01-29T07:04:21.923Z,1003.10
2023-01-29T07:05:22.829Z,1003.14
2023-01-29T07:06:21.946Z,1003.10
2023-01-29T07:07:22.185Z,1003.14
2023-01-29T07:08:22.023Z,1003.06
2023-01-29T07:09:22.683Z,1003.12
2023-01-29T07:10:22.820Z,1003.09
2023-01-29T07:11:21.887Z,1003.08
2023-01-29T07:12:21.821Z,1003.14
2023-01-29T07:13:21.901Z,1003.13
2023-01-29T07:14:21.927Z,1003.13
2023-01-29T07:15:21.973Z,1003.20
2023-01-29T07:16:22.073Z,1003.20
2023-01-29T07:17:21.791Z,1003.13
2023-01-29T07:18:21.772Z,1003.13
2023-01-29T07:19:21.897Z,1003.15
2023-01-29T07:20:21.961Z,1003.11
2023-01-29T07:21:21.744Z,1003.08
2023-01-29T07:22:21.917Z,1003.11
2023-01-29T07:23:21.832Z,1003.11
2023-01-29T07:24:22.074Z,1003.07
2023-01-29T07:25:21.968Z,1003.06
2023-01-29T07:26:21.682Z,1003.06
2023-01-29T07:27:22.041Z,1002.97
2023-01-29T07:28:21.660Z,1003.06
2023-01-29T07:29:24.471Z,1003.08
2023-01-29T07:30:25.894Z,1003.09
2023-01-29T07:31:22.359Z,1003.15
2023-01-29T07:32:22.183Z,1003.15
2023-01-29T07:33:21.973Z,1003.22
2023-01-29T07:34:22.317Z,1003.23
2023-01-29T07:35:22.380Z,1003.26
2023-01-29T07:36:22.338Z,1003.29
2023-01-29T07:37:22.282Z,1003.31
2023-01-29T07:38:22.573Z,1003.32
2023-01-29T07:39:22.394Z,1003.29
2023-01-29T07:40:22.372Z,1003.24
2023-01-29T07:41:21.726Z,1003.26
2023-01-29T07:42:21.525Z,1003.26
2023-01-29T07:43:21.591Z,1003.27
2023-01-29T07:44:21.425Z,1003.31
2023-01-29T07:45:21.667Z,1003.24
2023-01-29T07:46:21.767Z,1003.23
2023-01-29T07:47:21.794Z,1003.13
2023-01-29T07:48:21.857Z,1003.07
2023-01-29T07:49:22.019Z,1003.19
2023-01-29T07:50:21.563Z,1003.21
2023-01-29T07:51:22.084Z,1003.16
2023-01-29T07:52:22.515Z,1003.14
2023-01-29T07:53:22.184Z,1003.14
2023-01-29T07:54:22.187Z,1003.15
2023-01-29T07:55:22.014Z,1003.19
2023-01-29T07:56:21.388Z,1003.15
2023-01-29T07:57:22.156Z,1003.14
2023-01-29T07:58:22.072Z,1003.15
2023-01-29T07:59:22.025Z,1003.16
2023-01-29T08:00:21.486Z,1003.18
2023-01-29T08:01:22.078Z,1003.25
2023-01-29T08:02:21.994Z,1003.26
2023-01-29T08:03:22.070Z,1003.27
2023-01-29T08:04:22.003Z,1003.28
2023-01-29T08:05:21.891Z,1003.31
2023-01-29T08:06:22.050Z,1003.21
2023-01-29T08:07:22.005Z,1003.21
2023-01-29T08:08:22.183Z,1003.18
2023-01-29T08:09:21.107Z,1003.14
2023-01-29T08:10:21.192Z,1003.08
2023-01-29T08:11:21.173Z,1003.15
2023-01-29T08:12:21.290Z,1003.08
2023-01-29T08:13:21.196Z,1003.02
2023-01-29T08:14:21.239Z,1003.01
2023-01-29T08:15:21.445Z,1003.02
2023-01-29T08:16:21.477Z,1003.01
2023-01-29T08:17:21.540Z,1003.06
2023-01-29T08:18:21.150Z,1003.02
2023-01-29T08:19:21.538Z,1003.06
2023-01-29T08:20:21.600Z,1003.04
2023-01-29T08:21:21.681Z,1003.04
2023-01-29T08:22:21.708Z,1003.11
2023-01-29T08:23:21.705Z,1003.08
2023-01-29T08:24:22.069Z,1003.08
2023-01-29T08:25:21.615Z,1003.04
2023-01-29T08:26:21.737Z,1002.94
2023-01-29T08:27:20.987Z,1002.96
2023-01-29T08:28:21.736Z,1002.88
2023-01-29T08:29:21.651Z,1002.78
2023-01-29T08:30:25.984Z,1002.73
2023-01-29T08:31:21.760Z,1002.69
2023-01-29T08:32:21.725Z,1002.61
2023-01-29T08:33:29.779Z,1002.62
2023-01-29T08:34:22.355Z,1002.59
2023-01-29T08:35:21.741Z,1002.60
2023-01-29T08:36:21.484Z,1002.58
2023-01-29T08:37:21.619Z,1002.60
2023-01-29T08:38:21.552Z,1002.62
2023-01-29T08:39:22.067Z,1002.65
2023-01-29T08:40:20.952Z,1002.65
2023-01-29T08:41:20.734Z,1002.66
2023-01-29T08:42:20.677Z,1002.66
2023-01-29T08:43:20.831Z,1002.66
2023-01-29T08:44:20.910Z,1002.64
2023-01-29T08:45:20.946Z,1002.61
2023-01-29T08:46:20.766Z,1002.60
2023-01-29T08:47:21.195Z,1002.58
2023-01-29T08:48:20.756Z,1002.62
2023-01-29T08:49:21.163Z,1002.62
2023-01-29T08:50:21.222Z,1002.65
2023-01-29T08:51:21.296Z,1002.68
2023-01-29T08:52:21.331Z,1002.64
2023-01-29T08:53:21.380Z,1002.67
2023-01-29T08:54:21.315Z,1002.62
2023-01-29T08:55:21.540Z,1002.61
2023-01-29T08:56:21.353Z,1002.58
2023-01-29T08:57:21.286Z,1002.63
2023-01-29T08:58:21.422Z,1002.66
2023-01-29T08:59:21.318Z,1002.67
2023-01-29T09:00:21.241Z,1002.64
2023-01-29T09:01:21.422Z,1002.66
2023-01-29T09:02:20.929Z,1002.67
2023-01-29T09:03:21.970Z,1002.68
2023-01-29T09:04:21.351Z,1002.61
2023-01-29T09:05:21.093Z,1002.65
2023-01-29T09:06:21.243Z,1002.64
2023-01-29T09:07:21.347Z,1002.67
2023-01-29T09:08:21.568Z,1002.67
2023-01-29T09:09:20.328Z,1002.64
2023-01-29T09:10:20.422Z,1002.62
2023-01-29T09:11:20.825Z,1002.63
2023-01-29T09:12:20.486Z,1002.66
2023-01-29T09:13:20.537Z,1002.71
2023-01-29T09:14:20.569Z,1002.71
2023-01-29T09:15:20.368Z,1002.73
2023-01-29T09:16:20.514Z,1002.67
2023-01-29T09:17:20.506Z,1002.62
2023-01-29T09:18:20.248Z,1002.58
2023-01-29T09:19:20.485Z,1002.51
2023-01-29T09:20:20.992Z,1002.54
2023-01-29T09:21:20.672Z,1002.54
2023-01-29T09:22:20.552Z,1002.60
2023-01-29T09:23:20.289Z,1002.62
2023-01-29T09:24:20.376Z,1002.63
2023-01-29T09:25:20.143Z,1002.66
2023-01-29T09:26:20.458Z,1002.63
2023-01-29T09:27:20.479Z,1002.61
2023-01-29T09:28:20.542Z,1002.66
2023-01-29T09:29:20.575Z,1002.64
2023-01-29T09:30:20.764Z,1002.62
2023-01-29T09:31:20.569Z,1002.61
2023-01-29T09:32:43.959Z,1002.61
2023-01-29T09:33:21.173Z,1002.59
2023-01-29T09:34:20.888Z,1002.63
2023-01-29T09:35:20.523Z,1002.57
2023-01-29T09:36:21.224Z,1002.60
2023-01-29T09:37:21.913Z,1002.59
2023-01-29T09:38:20.563Z,1002.56
2023-01-29T09:39:19.960Z,1002.57
2023-01-29T09:40:20.005Z,1002.51
2023-01-29T09:41:20.663Z,1002.56
2023-01-29T09:42:20.063Z,1002.55
2023-01-29T09:43:20.181Z,1002.58
2023-01-29T09:44:19.938Z,1002.59
2023-01-29T09:45:20.595Z,1002.55
2023-01-29T09:46:20.504Z,1002.50
2023-01-29T09:47:20.478Z,1002.54
2023-01-29T09:48:19.887Z,1002.54
2023-01-29T09:49:20.525Z,1002.50
2023-01-29T09:50:20.574Z,1002.48
2023-01-29T09:51:20.607Z,1002.48
2023-01-29T09:52:20.685Z,1002.45
2023-01-29T09:53:20.739Z,1002.48
2023-01-29T09:54:20.644Z,1002.47
2023-01-29T09:55:20.390Z,1002.44
2023-01-29T09:56:20.915Z,1002.49
2023-01-29T09:57:24.761Z,1002.53
2023-01-29T09:58:20.020Z,1002.50
2023-01-29T09:59:19.922Z,1002.53
2023-01-29T10:00:20.593Z,1002.52
2023-01-29T10:01:20.760Z,1002.48
2023-01-29T10:02:20.506Z,1002.47
2023-01-29T10:03:20.137Z,1002.46
2023-01-29T10:04:20.104Z,1002.45
2023-01-29T10:05:20.829Z,1002.40
2023-01-29T10:06:19.602Z,1002.34
2023-01-29T10:07:20.477Z,1002.39
2023-01-29T10:08:20.328Z,1002.42
2023-01-29T10:09:19.997Z,1002.38
2023-01-29T10:10:19.657Z,1002.34
2023-01-29T10:11:19.722Z,1002.34
2023-01-29T10:12:19.800Z,1002.36
2023-01-29T10:13:19.948Z,1002.29
2023-01-29T10:14:19.869Z,1002.24
2023-01-29T10:15:20.022Z,1002.23
2023-01-29T10:16:20.117Z,1002.16
2023-01-29T10:17:20.086Z,1002.14
2023-01-29T10:18:20.141Z,1002.15
2023-01-29T10:19:20.120Z,1002.17
2023-01-29T10:20:20.227Z,1002.13
2023-01-29T10:21:20.373Z,1002.16
2023-01-29T10:22:20.255Z,1002.15
2023-01-29T10:23:19.732Z,1002.08
2023-01-29T10:24:20.399Z,1002.05
2023-01-29T10:25:20.503Z,1001.98
2023-01-29T10:26:20.477Z,1002.02
2023-01-29T10:27:20.022Z,1001.99
2023-01-29T10:28:19.790Z,1002.00
2023-01-29T10:29:20.071Z,1002.00
2023-01-29T10:30:20.486Z,1001.95
2023-01-29T10:31:20.222Z,1001.91
2023-01-29T10:32:20.065Z,1001.98
2023-01-29T10:33:20.234Z,1002.06
2023-01-29T10:34:19.363Z,1002.02
2023-01-29T10:35:19.390Z,1002.05
2023-01-29T10:36:20.609Z,1002.08
2023-01-29T10:37:20.101Z,1002.04
2023-01-29T10:38:19.206Z,1001.98
2023-01-29T10:39:20.327Z,1002.00
2023-01-29T10:40:23.495Z,1001.96
2023-01-29T10:41:19.414Z,1001.91
2023-01-29T10:42:19.491Z,1001.88
2023-01-29T10:43:19.451Z,1001.78
2023-01-29T10:44:19.503Z,1001.82
2023-01-29T10:45:19.908Z,1001.79
2023-01-29T10:46:19.205Z,1001.75
2023-01-29T10:47:19.718Z,1001.80
2023-01-29T10:48:19.558Z,1001.78
2023-01-29T10:49:19.875Z,1001.76
2023-01-29T10:50:19.546Z,1001.77
2023-01-29T10:51:19.068Z,1001.70
2023-01-29T10:52:19.105Z,1001.68
2023-01-29T10:53:19.381Z,1001.69
2023-01-29T10:54:19.741Z,1001.69
2023-01-29T10:55:19.241Z,1001.66
2023-01-29T10:56:23.107Z,1001.63
2023-01-29T10:57:19.831Z,1001.58
2023-01-29T10:58:20.451Z,1001.60
2023-01-29T10:59:19.780Z,1001.58
2023-01-29T11:00:19.483Z,1001.57
2023-01-29T11:01:19.883Z,1001.57
2023-01-29T11:02:19.825Z,1001.56
2023-01-29T11:03:27.534Z,1001.49
2023-01-29T11:04:20.610Z,1001.49
2023-01-29T11:05:19.726Z,1001.47
2023-01-29T11:06:19.625Z,1001.46
2023-01-29T11:07:18.873Z,1001.48
2023-01-29T11:08:18.860Z,1001.45
2023-01-29T11:09:18.941Z,1001.44
2023-01-29T11:10:19.184Z,1001.47
2023-01-29T11:11:19.065Z,1001.48
2023-01-29T11:12:20.940Z,1001.48
2023-01-29T11:13:19.183Z,1001.46
2023-01-29T11:14:19.195Z,1001.51
2023-01-29T11:15:19.050Z,1001.53
2023-01-29T11:16:19.307Z,1001.47
2023-01-29T11:17:19.381Z,1001.39
2023-01-29T11:18:18.947Z,1001.45
2023-01-29T11:19:23.589Z,1001.44
2023-01-29T11:20:19.033Z,1001.47
2023-01-29T11:21:18.647Z,1001.40
2023-01-29T11:22:19.371Z,1001.44
2023-01-29T11:23:19.530Z,1001.38
2023-01-29T11:24:19.439Z,1001.36
2023-01-29T11:25:18.674Z,1001.32
2023-01-29T11:26:18.761Z,1001.27
2023-01-29T11:27:19.397Z,1001.26
2023-01-29T11:28:19.306Z,1001.24
2023-01-29T11:29:19.049Z,1001.22
2023-01-29T11:30:19.696Z,1001.17
2023-01-29T11:31:19.358Z,1001.10
2023-01-29T11:32:19.428Z,1001.08
2023-01-29T11:33:19.335Z,1001.02
2023-01-29T11:34:19.364Z,1001.01
2023-01-29T11:35:19.426Z,1000.97
2023-01-29T11:36:19.397Z,1000.93
2023-01-29T11:37:18.500Z,1000.95
2023-01-29T11:38:18.563Z,1000.94
2023-01-29T11:39:18.622Z,1000.96
2023-01-29T11:40:19.030Z,1000.92
2023-01-29T11:41:18.753Z,1000.92
2023-01-29T11:42:18.517Z,1000.93
2023-01-29T11:43:18.871Z,1000.94
2023-01-29T11:44:20.178Z,1000.86
2023-01-29T11:45:18.956Z,1000.87
2023-01-29T11:46:19.016Z,1000.88
2023-01-29T11:47:19.013Z,1000.85
2023-01-29T11:48:18.874Z,1000.79
2023-01-29T11:49:20.973Z,1000.83
2023-01-29T11:50:19.035Z,1000.77
2023-01-29T11:51:19.037Z,1000.72
2023-01-29T11:52:19.042Z,1000.70
2023-01-29T11:53:19.043Z,1000.70
2023-01-29T11:54:19.123Z,1000.68
2023-01-29T11:55:18.637Z,1000.67
2023-01-29T11:56:19.322Z,1000.59
2023-01-29T11:57:19.417Z,1000.60
2023-01-29T11:58:19.022Z,1000.59
2023-01-29T11:59:19.143Z,1000.53
2023-01-29T12:00:19.524Z,1000.47
2023-01-29T12:01:19.134Z,1000.53
2023-01-29T12:02:19.035Z,1000.54
2023-01-29T12:03:19.092Z,1000.53
2023-01-29T12:04:18.357Z,1000.51
2023-01-29T12:05:18.824Z,1000.46